AirNav   Everest Fuels
 
 669 users online  

28FA N Broward Medical Center Heliport
Pompano Beach, Florida, USA

GOING TO POMPANO BEACH?


FAA INFORMATION EFFECTIVE 05 DECEMBER 2019

Location

FAA Identifier: 28FA
Lat/Long: 26-16-42.2890N 080-07-19.1590W
26-16.704817N 080-07.319317W
26.2784136,-80.1219886
(estimated)
Elevation: 21 ft. / 6 m (estimated)
Variation: 03W (1985)
From city: 2 miles N of POMPANO BEACH, FL
Time zone: UTC -5 (UTC -4 during Daylight Saving Time)
Zip code: 33064

Heliport Operations

Heliport use: Private use, MEDICAL.
Activation date: 12/1969
Control tower: no
ARTCC: MIAMI CENTER
FSS: MIAMI FLIGHT SERVICE STATION
Attendance: CONTINUOUS
Wind indicator: yes
Segmented circle: no
Lights: FOR PERIMETER LGTS CALL 305-941-8300.

Heliport Communications

WX ASOS at PMP (1.9 nm S): PHONE 954-783-3720
WX ASOS at FXE (6 nm SW): PHONE 954-772-2537
WX AWOS-3 at BCT (6 nm N): 121.125 (561-391-2696)
WX ASOS at FLL (12 nm S): PHONE 954-359-7857
WX ASOS at HWO (18 nm S): PHONE 954-983-5904
WX AWOS-3PT at LNA (19 nm N): 119.925 (561-964-0308)

Nearby radio navigation aids

VOR radial/distance  VOR name  Freq  Var
FLLr017/12.5FORT LAUDERDALE VOR/DME114.4006W
PBIr188/24.2PALM BEACH VORTAC115.7003W
DHPr027/31.2DOLPHIN VORTAC113.9004W
VKZr007/31.6VIRGINIA KEY VOR/DME117.1004W

 
NDB name  Hdg/Dist  Freq  Var  ID
UNITED168/39.540505WUTX ..- - -..-

Heliport Services

Airframe service: NONE
Powerplant service: NONE

Runway Information

Helipad H1

Dimensions: 50 x 50 ft. / 15 x 15 m
Surface: asphalt, in fair condition
Runway edge lights: PERI
Latitude: 26-16.704817N
Longitude: 080-07.319317W
Elevation: 21.0 ft.
Traffic pattern: leftleft
Markings: none, in fair condition

Heliport Ownership and Management from official FAA records

Ownership: Publicly-owned
Owner: N BROWARD HOSPTAL DISTRICT
1625 SE 3RD AVE
FORT LAUDERDALE, FL 33316
Manager: SCOTT PAYNE
201 SAMPLE RD
DEERFIELD BEACH, FL 33064
Phone (954) 786-6760
PRI CTC: DAVID PORTER

Additional Remarks

A52-H1 3-FOOT CHAIN FENCE AROUND PAD W/CORNER OBSTN LGTS, 35-FOOT PLINE 160 FEET N., 130-FOOT BLDG 360 FEET AND 25-FOOT POLE S., 25-FOOT POLE 58 FEET SW., 16-FOOT POLE 162 FEET NW., AND 16-FOOT POLE 156 FEET W.
FOR CD CTC MIAMI APCH AT 305-869-5432.

Instrument Procedures

There are no published instrument procedures at 28FA.

Some nearby airports with instrument procedures:

KPMP - Pompano Beach Airpark (2 nm S)
KFXE - Fort Lauderdale Executive Airport (6 nm SW)
KBCT - Boca Raton Airport (6 nm N)
KFLL - Fort Lauderdale/Hollywood International Airport (12 nm S)
KHWO - North Perry Airport (18 nm S)
KLNA - Palm Beach County Park Airport (19 nm N)
 
Loc | Ops | Rwys | IFR | FBO | Links
Com | Nav | Svcs | Stats | Notes


 
Area around 28FA (N Broward Medical Center Heliport)
 
Road maps at: MapQuest Bing Google
 
Aerial photo
No photo
 
Sectional chart

 
Airport distance calculator
Flying to N Broward Medical Center Heliport? Find the distance to fly.

From to 28FA

Sunrise and sunset
Times for 07-Dec-2019
 Local
(UTC-5)
 Zulu
(UTC)
Morning civil twilight06:3111:31
Sunrise06:5611:56
Sunset17:2822:28
Evening civil twilight17:5322:53

Current date and time
Zulu (UTC)  07-Dec-2019 09:44:16
Local (UTC-5)  07-Dec-2019 04:44:16
 
METAR
KPMP 
2nm S 
070853Z AUTO 00000KT 7SM CLR 16/13 A3010 RMK AO2 SLP192 T01560133 56014
KFXE 
6nm SW 
070853Z 00000KT 10SM CLR 15/14 A3010 RMK AO2 SLP194 T01500144 56013
KBCT 
6nm N 
070353Z 31004KT 10SM FEW050 17/15 A3017
KFLL 
13nm S 
070853Z 00000KT 10SM FEW250 16/14 A3009 RMK AO2 SLP190 T01610139 55013 $
KHWO 
18nm S 
070853Z AUTO 00000KT 10SM CLR 15/13 A3012 RMK AO2 SLP198 T01500133 55013 $
KLNA 
19nm N 
070935Z AUTO 00000KT 10SM CLR 16/15 A3011 RMK AO2 T01570145 PNO
TAF
KFXE 
6nm SW 
070828Z 0708/0806 VRB03KT P6SM SKC FM071600 07008KT P6SM SKC FM080000 VRB03KT P6SM SKC
KFLL 
13nm S 
070828Z 0708/0812 VRB03KT P6SM FEW050 SCT250 FM071600 08008KT P6SM SKC FM080100 07005KT P6SM SKC
NOTAMs
Click for the latest NOTAMs
NOTAMs are issued by the DoD/FAA and will open in a separate window not controlled by AirNav.

 

 
 

Would you like to see your business listed on this page?

 If your business provides an interesting product or service to pilots, flight crews, aircraft, or users of the N Broward Medical Center Heliport, you should consider listing it here.  To start the listing process, click on the button below
 
Add a business
 

Other Pages about N Broward Medical Center Heliport

Update a link
 
Copyright © AirNav, LLC. All rights reserved. Privacy Policy  Contact